sensor_id;sensor_type;location;lat;lon;timestamp;P1;P2;P0
71794;PMS7003;59641;45.188;5.712;2022-10-12T00:01:42;12.25;10.25;8.25
71794;PMS7003;59641;45.188;5.712;2022-10-12T00:04:08;13.75;13.75;10.00
71794;PMS7003;59641;45.188;5.712;2022-10-12T00:06:33;12.75;12.75;10.00
71794;PMS7003;59641;45.188;5.712;2022-10-12T00:08:59;11.00;11.00;8.75
71794;PMS7003;59641;45.188;5.712;2022-10-12T00:11:27;13.00;13.00;10.00
71794;PMS7003;59641;45.188;5.712;2022-10-12T00:13:55;16.60;14.80;11.00
71794;PMS7003;59641;45.188;5.712;2022-10-12T00:16:22;13.00;10.80;8.00
71794;PMS7003;59641;45.188;5.712;2022-10-12T00:18:49;16.60;16.40;12.80
71794;PMS7003;59641;45.188;5.712;2022-10-12T00:21:25;14.20;14.20;11.00
71794;PMS7003;59641;45.188;5.712;2022-10-12T00:23:55;14.80;12.60;9.60
71794;PMS7003;59641;45.188;5.712;2022-10-12T00:26:25;15.60;14.40;11.00
71794;PMS7003;59641;45.188;5.712;2022-10-12T00:28:56;14.80;12.80;10.00
71794;PMS7003;59641;45.188;5.712;2022-10-12T00:31:24;14.20;13.40;10.00
71794;PMS7003;59641;45.188;5.712;2022-10-12T00:33:51;12.80;10.80;8.00
71794;PMS7003;59641;45.188;5.712;2022-10-12T00:38:47;13.25;11.00;10.00
71794;PMS7003;59641;45.188;5.712;2022-10-12T00:41:21;18.00;16.00;11.20
71794;PMS7003;59641;45.188;5.712;2022-10-12T00:43:49;18.20;17.60;14.00
71794;PMS7003;59641;45.188;5.712;2022-10-12T00:49:11;14.80;14.20;12.00
71794;PMS7003;59641;45.188;5.712;2022-10-12T00:51:42;16.40;15.80;12.80
71794;PMS7003;59641;45.188;5.712;2022-10-12T00:54:12;15.75;13.50;11.00
71794;PMS7003;59641;45.188;5.712;2022-10-12T00:56:43;14.25;14.25;12.00
71794;PMS7003;59641;45.188;5.712;2022-10-12T00:59:11;17.40;16.60;13.00
71794;PMS7003;59641;45.188;5.712;2022-10-12T01:01:43;17.40;16.40;13.00
71794;PMS7003;59641;45.188;5.712;2022-10-12T01:04:09;10.75;10.75;8.50
71794;PMS7003;59641;45.188;5.712;2022-10-12T01:06:34;15.25;12.00;9.25
71794;PMS7003;59641;45.188;5.712;2022-10-12T01:09:00;15.75;15.75;11.50
71794;PMS7003;59641;45.188;5.712;2022-10-12T01:11:26;15.40;13.80;11.00
71794;PMS7003;59641;45.188;5.712;2022-10-12T01:13:52;14.75;13.00;11.00
71794;PMS7003;59641;45.188;5.712;2022-10-12T01:16:25;15.75;15.00;11.00
71794;PMS7003;59641;45.188;5.712;2022-10-12T01:19:29;15.00;13.00;10.60
71794;PMS7003;59641;45.188;5.712;2022-10-12T01:22:08;15.80;15.20;11.40
71794;PMS7003;59641;45.188;5.712;2022-10-12T01:30:11;13.40;13.40;10.20
71794;PMS7003;59641;45.188;5.712;2022-10-12T01:38:55;11.80;11.00;8.20
71794;PMS7003;59641;45.188;5.712;2022-10-12T01:43:35;16.20;15.00;11.00
71794;PMS7003;59641;45.188;5.712;2022-10-12T01:46:34;10.60;10.60;8.00
71794;PMS7003;59641;45.188;5.712;2022-10-12T01:48:48;14.80;11.80;9.60
71794;PMS7003;59641;45.188;5.712;2022-10-12T01:51:20;14.40;13.60;11.40
71794;PMS7003;59641;45.188;5.712;2022-10-12T01:53:56;14.40;14.00;10.80
71794;PMS7003;59641;45.188;5.712;2022-10-12T01:56:49;13.00;12.00;9.20
71794;PMS7003;59641;45.188;5.712;2022-10-12T02:07:58;13.00;12.80;9.60
71794;PMS7003;59641;45.188;5.712;2022-10-12T02:10:34;13.40;13.40;10.00
71794;PMS7003;59641;45.188;5.712;2022-10-12T02:13:05;13.20;12.40;10.00
71794;PMS7003;59641;45.188;5.712;2022-10-12T02:15:33;15.20;14.80;11.00
71794;PMS7003;59641;45.188;5.712;2022-10-12T02:18:03;16.00;16.00;12.00
71794;PMS7003;59641;45.188;5.712;2022-10-12T02:20:30;12.60;12.40;10.40
71794;PMS7003;59641;45.188;5.712;2022-10-12T02:22:56;14.00;13.40;12.40
71794;PMS7003;59641;45.188;5.712;2022-10-12T02:25:22;18.60;17.60;13.00
71794;PMS7003;59641;45.188;5.712;2022-10-12T02:27:54;15.20;15.20;12.00
71794;PMS7003;59641;45.188;5.712;2022-10-12T02:30:24;22.25;22.00;15.25
71794;PMS7003;59641;45.188;5.712;2022-10-12T02:38:14;14.40;12.20;10.00
71794;PMS7003;59641;45.188;5.712;2022-10-12T02:41:26;7.40;6.80;4.00
71794;PMS7003;59641;45.188;5.712;2022-10-12T02:43:58;13.40;13.00;10.00
71794;PMS7003;59641;45.188;5.712;2022-10-12T02:46:26;9.60;9.60;8.40
71794;PMS7003;59641;45.188;5.712;2022-10-12T02:48:54;12.80;10.80;9.20
71794;PMS7003;59641;45.188;5.712;2022-10-12T02:51:22;15.20;13.20;9.80
71794;PMS7003;59641;45.188;5.712;2022-10-12T02:53:50;13.80;13.00;10.20
71794;PMS7003;59641;45.188;5.712;2022-10-12T02:56:15;13.25;12.00;9.25
71794;PMS7003;59641;45.188;5.712;2022-10-12T02:58:42;11.00;10.50;7.75
71794;PMS7003;59641;45.188;5.712;2022-10-12T03:01:08;15.60;11.00;10.00
71794;PMS7003;59641;45.188;5.712;2022-10-12T03:03:34;11.75;11.75;9.50
71794;PMS7003;59641;45.188;5.712;2022-10-12T03:05:59;12.00;12.00;10.00
71794;PMS7003;59641;45.188;5.712;2022-10-12T03:08:25;12.00;12.00;9.75
71794;PMS7003;59641;45.188;5.712;2022-10-12T03:10:50;14.50;13.00;9.50
71794;PMS7003;59641;45.188;5.712;2022-10-12T03:13:15;14.25;14.00;9.75
71794;PMS7003;59641;45.188;5.712;2022-10-12T03:15:41;12.75;12.75;9.50
71794;PMS7003;59641;45.188;5.712;2022-10-12T03:18:09;15.00;13.25;10.50
71794;PMS7003;59641;45.188;5.712;2022-10-12T03:20:35;13.80;13.80;9.40
71794;PMS7003;59641;45.188;5.712;2022-10-12T03:23:00;13.25;12.75;9.00
71794;PMS7003;59641;45.188;5.712;2022-10-12T03:25:26;13.25;11.25;10.00
71794;PMS7003;59641;45.188;5.712;2022-10-12T03:27:51;12.75;10.00;10.00
71794;PMS7003;59641;45.188;5.712;2022-10-12T03:30:16;10.00;10.00;8.00
71794;PMS7003;59641;45.188;5.712;2022-10-12T03:32:42;13.25;12.00;9.25
71794;PMS7003;59641;45.188;5.712;2022-10-12T03:35:07;12.75;10.75;9.75
71794;PMS7003;59641;45.188;5.712;2022-10-12T03:37:33;13.00;12.00;9.25
71794;PMS7003;59641;45.188;5.712;2022-10-12T03:39:58;12.25;12.25;9.00
71794;PMS7003;59641;45.188;5.712;2022-10-12T03:42:24;14.25;12.00;9.75
71794;PMS7003;59641;45.188;5.712;2022-10-12T03:44:49;11.75;11.75;9.75
71794;PMS7003;59641;45.188;5.712;2022-10-12T03:47:15;15.75;13.00;9.00
71794;PMS7003;59641;45.188;5.712;2022-10-12T03:49:40;14.50;13.00;9.75
71794;PMS7003;59641;45.188;5.712;2022-10-12T03:52:06;15.25;15.25;11.25
71794;PMS7003;59641;45.188;5.712;2022-10-12T03:54:31;15.25;13.25;9.00
71794;PMS7003;59641;45.188;5.712;2022-10-12T03:56:57;17.00;12.00;9.00
71794;PMS7003;59641;45.188;5.712;2022-10-12T03:59:22;16.75;14.25;10.75
71794;PMS7003;59641;45.188;5.712;2022-10-12T04:01:48;14.75;13.75;9.00
71794;PMS7003;59641;45.188;5.712;2022-10-12T04:04:13;14.00;13.75;10.00
71794;PMS7003;59641;45.188;5.712;2022-10-12T04:06:38;10.25;9.00;7.50
71794;PMS7003;59641;45.188;5.712;2022-10-12T04:09:04;13.75;13.75;11.50
71794;PMS7003;59641;45.188;5.712;2022-10-12T04:11:29;13.75;13.00;10.00
71794;PMS7003;59641;45.188;5.712;2022-10-12T04:13:54;16.75;13.75;10.00
71794;PMS7003;59641;45.188;5.712;2022-10-12T04:16:20;16.00;15.00;11.00
71794;PMS7003;59641;45.188;5.712;2022-10-12T04:18:46;12.75;12.25;9.25
71794;PMS7003;59641;45.188;5.712;2022-10-12T04:21:12;13.50;13.00;9.75
71794;PMS7003;59641;45.188;5.712;2022-10-12T04:23:39;17.00;15.80;11.80
71794;PMS7003;59641;45.188;5.712;2022-10-12T04:26:05;19.00;19.00;14.00
71794;PMS7003;59641;45.188;5.712;2022-10-12T04:28:30;18.25;17.25;13.25
71794;PMS7003;59641;45.188;5.712;2022-10-12T04:30:56;23.00;20.00;15.25
71794;PMS7003;59641;45.188;5.712;2022-10-12T04:33:22;23.50;20.50;15.00
71794;PMS7003;59641;45.188;5.712;2022-10-12T04:35:47;25.50;22.25;16.25
71794;PMS7003;59641;45.188;5.712;2022-10-12T04:38:13;18.25;18.25;13.00
71794;PMS7003;59641;45.188;5.712;2022-10-12T04:40:38;19.50;19.50;13.75
71794;PMS7003;59641;45.188;5.712;2022-10-12T04:43:03;20.25;19.25;14.50
71794;PMS7003;59641;45.188;5.712;2022-10-12T04:45:29;21.00;17.50;13.25
71794;PMS7003;59641;45.188;5.712;2022-10-12T04:47:54;19.75;18.00;14.00
71794;PMS7003;59641;45.188;5.712;2022-10-12T04:50:20;18.50;17.00;12.00
71794;PMS7003;59641;45.188;5.712;2022-10-12T04:52:46;19.20;18.80;14.00
71794;PMS7003;59641;45.188;5.712;2022-10-12T04:55:11;19.25;17.00;12.00
71794;PMS7003;59641;45.188;5.712;2022-10-12T04:57:37;13.75;13.75;11.00
71794;PMS7003;59641;45.188;5.712;2022-10-12T05:00:03;14.50;14.50;11.00
71794;PMS7003;59641;45.188;5.712;2022-10-12T05:02:29;17.60;17.60;13.20
71794;PMS7003;59641;45.188;5.712;2022-10-12T05:04:54;17.25;15.25;11.50
71794;PMS7003;59641;45.188;5.712;2022-10-12T05:07:19;17.25;17.25;12.25
71794;PMS7003;59641;45.188;5.712;2022-10-12T05:09:45;20.75;18.25;14.00
71794;PMS7003;59641;45.188;5.712;2022-10-12T05:12:10;27.25;24.00;19.00
71794;PMS7003;59641;45.188;5.712;2022-10-12T05:14:36;30.00;27.25;19.00
71794;PMS7003;59641;45.188;5.712;2022-10-12T05:17:02;30.25;26.00;19.00
71794;PMS7003;59641;45.188;5.712;2022-10-12T05:19:27;22.25;20.00;14.25
71794;PMS7003;59641;45.188;5.712;2022-10-12T05:21:53;33.25;27.75;18.75
71794;PMS7003;59641;45.188;5.712;2022-10-12T05:24:18;30.50;26.00;18.00
71794;PMS7003;59641;45.188;5.712;2022-10-12T05:26:44;31.75;27.00;19.00
71794;PMS7003;59641;45.188;5.712;2022-10-12T05:29:09;23.75;23.25;17.00
71794;PMS7003;59641;45.188;5.712;2022-10-12T05:31:35;24.75;24.75;19.00
71794;PMS7003;59641;45.188;5.712;2022-10-12T05:34:02;31.00;29.00;20.00
71794;PMS7003;59641;45.188;5.712;2022-10-12T05:36:27;30.75;29.25;21.25
71794;PMS7003;59641;45.188;5.712;2022-10-12T05:38:53;31.50;29.00;20.00
71794;PMS7003;59641;45.188;5.712;2022-10-12T05:41:18;29.75;28.50;20.75
71794;PMS7003;59641;45.188;5.712;2022-10-12T05:43:44;31.00;29.00;19.00
71794;PMS7003;59641;45.188;5.712;2022-10-12T05:46:09;25.25;22.75;15.50
71794;PMS7003;59641;45.188;5.712;2022-10-12T05:48:34;24.25;21.00;16.00
71794;PMS7003;59641;45.188;5.712;2022-10-12T05:51:00;20.75;19.50;15.25
71794;PMS7003;59641;45.188;5.712;2022-10-12T05:53:25;21.75;20.50;14.50
71794;PMS7003;59641;45.188;5.712;2022-10-12T05:55:55;20.00;18.00;14.00
71794;PMS7003;59641;45.188;5.712;2022-10-12T05:58:24;21.80;20.00;15.00
71794;PMS7003;59641;45.188;5.712;2022-10-12T06:00:51;19.00;18.40;13.00
71794;PMS7003;59641;45.188;5.712;2022-10-12T06:03:16;22.75;22.00;15.75
71794;PMS7003;59641;45.188;5.712;2022-10-12T06:05:42;19.00;18.25;13.75
71794;PMS7003;59641;45.188;5.712;2022-10-12T06:08:10;20.20;19.20;15.00
71794;PMS7003;59641;45.188;5.712;2022-10-12T06:10:48;18.80;17.60;14.60
71794;PMS7003;59641;45.188;5.712;2022-10-12T06:13:16;19.00;18.40;14.80
71794;PMS7003;59641;45.188;5.712;2022-10-12T06:15:44;2.00;1.60;0.00
71794;PMS7003;59641;45.188;5.712;2022-10-12T06:18:10;19.80;19.00;13.20
71794;PMS7003;59641;45.188;5.712;2022-10-12T06:20:36;13.20;13.20;11.60
71794;PMS7003;59641;45.188;5.712;2022-10-12T06:23:02;20.25;19.75;14.50
71794;PMS7003;59641;45.188;5.712;2022-10-12T06:25:28;21.00;19.50;16.75
71794;PMS7003;59641;45.188;5.712;2022-10-12T06:27:53;23.25;19.00;13.75
71794;PMS7003;59641;45.188;5.712;2022-10-12T06:30:19;16.00;16.00;13.25
71794;PMS7003;59641;45.188;5.712;2022-10-12T06:32:44;13.75;12.75;10.50
71794;PMS7003;59641;45.188;5.712;2022-10-12T06:35:10;15.50;14.75;12.25
71794;PMS7003;59641;45.188;5.712;2022-10-12T06:37:35;19.00;14.75;10.75
71794;PMS7003;59641;45.188;5.712;2022-10-12T06:40:00;15.25;15.25;13.75
71794;PMS7003;59641;45.188;5.712;2022-10-12T06:42:26;20.25;17.75;13.00
71794;PMS7003;59641;45.188;5.712;2022-10-12T06:44:51;21.25;19.75;12.00
71794;PMS7003;59641;45.188;5.712;2022-10-12T06:47:17;15.25;14.50;11.75
71794;PMS7003;59641;45.188;5.712;2022-10-12T06:49:42;13.00;13.00;9.00
71794;PMS7003;59641;45.188;5.712;2022-10-12T06:52:07;18.25;18.25;15.00
71794;PMS7003;59641;45.188;5.712;2022-10-12T06:54:33;16.50;16.50;11.75
71794;PMS7003;59641;45.188;5.712;2022-10-12T06:56:58;17.25;15.00;12.00
71794;PMS7003;59641;45.188;5.712;2022-10-12T06:59:24;16.50;14.00;11.00
71794;PMS7003;59641;45.188;5.712;2022-10-12T07:01:49;19.50;16.25;12.25
71794;PMS7003;59641;45.188;5.712;2022-10-12T07:04:15;16.25;16.00;12.75
71794;PMS7003;59641;45.188;5.712;2022-10-12T07:06:41;3.60;2.20;0.00
71794;PMS7003;59641;45.188;5.712;2022-10-12T07:09:07;17.00;14.00;10.00
71794;PMS7003;59641;45.188;5.712;2022-10-12T07:11:33;16.75;15.00;12.00
71794;PMS7003;59641;45.188;5.712;2022-10-12T07:13:58;14.00;14.00;11.25
71794;PMS7003;59641;45.188;5.712;2022-10-12T07:16:24;16.00;16.00;11.75
71794;PMS7003;59641;45.188;5.712;2022-10-12T07:18:49;19.50;18.75;12.50
71794;PMS7003;59641;45.188;5.712;2022-10-12T07:21:15;19.75;16.50;12.75
71794;PMS7003;59641;45.188;5.712;2022-10-12T07:23:41;17.60;17.60;13.60
71794;PMS7003;59641;45.188;5.712;2022-10-12T07:26:06;21.00;20.25;14.25
71794;PMS7003;59641;45.188;5.712;2022-10-12T07:28:33;17.60;17.20;13.20
71794;PMS7003;59641;45.188;5.712;2022-10-12T07:31:00;18.50;17.75;13.25
71794;PMS7003;59641;45.188;5.712;2022-10-12T07:33:29;17.00;15.75;11.00
71794;PMS7003;59641;45.188;5.712;2022-10-12T07:35:59;19.20;17.80;13.20
71794;PMS7003;59641;45.188;5.712;2022-10-12T07:38:25;17.00;14.20;11.80
71794;PMS7003;59641;45.188;5.712;2022-10-12T07:40:51;12.50;11.75;9.50
71794;PMS7003;59641;45.188;5.712;2022-10-12T07:43:16;16.75;13.75;11.00
71794;PMS7003;59641;45.188;5.712;2022-10-12T07:45:42;18.50;17.25;12.00
71794;PMS7003;59641;45.188;5.712;2022-10-12T07:48:08;15.80;15.80;12.60
71794;PMS7003;59641;45.188;5.712;2022-10-12T07:50:33;12.50;12.50;10.00
71794;PMS7003;59641;45.188;5.712;2022-10-12T07:52:59;13.50;12.50;10.00
71794;PMS7003;59641;45.188;5.712;2022-10-12T07:55:24;14.00;14.00;11.00
71794;PMS7003;59641;45.188;5.712;2022-10-12T07:57:50;13.75;12.25;10.00
71794;PMS7003;59641;45.188;5.712;2022-10-12T08:00:15;16.25;14.25;10.00
71794;PMS7003;59641;45.188;5.712;2022-10-12T08:02:40;15.50;15.00;11.00
71794;PMS7003;59641;45.188;5.712;2022-10-12T08:05:06;14.75;13.75;10.25
71794;PMS7003;59641;45.188;5.712;2022-10-12T08:07:31;16.25;14.25;10.00
71794;PMS7003;59641;45.188;5.712;2022-10-12T08:09:57;20.50;20.00;14.25
71794;PMS7003;59641;45.188;5.712;2022-10-12T08:12:22;19.75;19.25;12.25
71794;PMS7003;59641;45.188;5.712;2022-10-12T08:14:48;16.00;16.00;11.50
71794;PMS7003;59641;45.188;5.712;2022-10-12T08:17:13;18.50;14.00;10.75
71794;PMS7003;59641;45.188;5.712;2022-10-12T08:19:39;13.50;12.75;9.50
71794;PMS7003;59641;45.188;5.712;2022-10-12T08:22:04;15.75;12.75;10.50
71794;PMS7003;59641;45.188;5.712;2022-10-12T08:24:29;15.75;13.50;10.00
71794;PMS7003;59641;45.188;5.712;2022-10-12T08:26:55;14.00;13.50;11.25
71794;PMS7003;59641;45.188;5.712;2022-10-12T08:29:21;16.00;15.00;11.00
71794;PMS7003;59641;45.188;5.712;2022-10-12T08:31:46;16.50;14.50;12.25
71794;PMS7003;59641;45.188;5.712;2022-10-12T08:34:15;14.80;13.40;10.00
71794;PMS7003;59641;45.188;5.712;2022-10-12T08:36:40;15.40;14.40;10.60
71794;PMS7003;59641;45.188;5.712;2022-10-12T08:39:06;17.25;15.50;12.25
71794;PMS7003;59641;45.188;5.712;2022-10-12T08:41:41;18.60;17.20;12.60
71794;PMS7003;59641;45.188;5.712;2022-10-12T08:47:50;18.00;12.80;9.80
71794;PMS7003;59641;45.188;5.712;2022-10-12T08:50:02;16.20;12.80;10.20
71794;PMS7003;59641;45.188;5.712;2022-10-12T08:52:32;13.40;12.80;10.80
71794;PMS7003;59641;45.188;5.712;2022-10-12T08:55:55;11.60;11.00;8.00
71794;PMS7003;59641;45.188;5.712;2022-10-12T08:58:14;11.80;11.80;9.60
71794;PMS7003;59641;45.188;5.712;2022-10-12T09:00:46;14.00;14.00;11.00
71794;PMS7003;59641;45.188;5.712;2022-10-12T09:06:26;12.80;11.60;9.00
71794;PMS7003;59641;45.188;5.712;2022-10-12T09:08:49;11.60;10.60;8.20
71794;PMS7003;59641;45.188;5.712;2022-10-12T09:14:25;16.60;16.60;12.60
71794;PMS7003;59641;45.188;5.712;2022-10-12T09:16:54;17.40;15.40;12.00
71794;PMS7003;59641;45.188;5.712;2022-10-12T09:19:24;18.20;17.60;13.00
71794;PMS7003;59641;45.188;5.712;2022-10-12T09:21:56;16.80;15.00;12.00
71794;PMS7003;59641;45.188;5.712;2022-10-12T09:24:24;18.25;15.50;13.00
71794;PMS7003;59641;45.188;5.712;2022-10-12T09:26:53;20.60;18.20;11.60
71794;PMS7003;59641;45.188;5.712;2022-10-12T09:29:25;16.40;15.60;11.40
71794;PMS7003;59641;45.188;5.712;2022-10-12T09:34:42;16.00;14.60;10.40
71794;PMS7003;59641;45.188;5.712;2022-10-12T09:37:11;14.20;14.20;11.80
71794;PMS7003;59641;45.188;5.712;2022-10-12T09:39:42;11.60;10.00;9.00
71794;PMS7003;59641;45.188;5.712;2022-10-12T09:42:08;18.00;15.00;12.25
71794;PMS7003;59641;45.188;5.712;2022-10-12T09:44:35;17.40;15.60;12.40
71794;PMS7003;59641;45.188;5.712;2022-10-12T09:47:21;16.20;15.20;11.40
71794;PMS7003;59641;45.188;5.712;2022-10-12T09:49:49;16.80;14.60;12.00
71794;PMS7003;59641;45.188;5.712;2022-10-12T09:52:18;14.40;13.80;9.40
71794;PMS7003;59641;45.188;5.712;2022-10-12T09:54:53;16.00;13.80;12.00
71794;PMS7003;59641;45.188;5.712;2022-10-12T09:57:32;19.20;14.60;10.20
71794;PMS7003;59641;45.188;5.712;2022-10-12T10:00:01;17.80;15.00;12.60
71794;PMS7003;59641;45.188;5.712;2022-10-12T10:02:30;16.60;16.00;12.40
71794;PMS7003;59641;45.188;5.712;2022-10-12T10:05:13;15.00;14.00;10.60
71794;PMS7003;59641;45.188;5.712;2022-10-12T10:07:52;14.00;11.60;9.00
71794;PMS7003;59641;45.188;5.712;2022-10-12T10:10:36;16.20;15.00;9.00
71794;PMS7003;59641;45.188;5.712;2022-10-12T10:13:01;18.25;16.75;14.75
71794;PMS7003;59641;45.188;5.712;2022-10-12T10:15:33;22.00;20.75;16.00
71794;PMS7003;59641;45.188;5.712;2022-10-12T10:18:48;13.40;12.80;9.20
71794;PMS7003;59641;45.188;5.712;2022-10-12T10:20:55;17.40;16.80;12.40
71794;PMS7003;59641;45.188;5.712;2022-10-12T10:26:01;29.25;27.25;18.50
71794;PMS7003;59641;45.188;5.712;2022-10-12T10:28:30;10.20;10.20;9.40
71794;PMS7003;59641;45.188;5.712;2022-10-12T10:33:32;15.80;15.20;11.20
71794;PMS7003;59641;45.188;5.712;2022-10-12T10:38:25;15.00;12.00;9.75
71794;PMS7003;59641;45.188;5.712;2022-10-12T10:40:51;17.50;13.75;11.50
71794;PMS7003;59641;45.188;5.712;2022-10-12T10:43:25;15.80;15.00;11.40
71794;PMS7003;59641;45.188;5.712;2022-10-12T10:45:54;14.80;13.60;11.40
71794;PMS7003;59641;45.188;5.712;2022-10-12T10:48:26;16.00;14.20;10.00
71794;PMS7003;59641;45.188;5.712;2022-10-12T10:50:56;13.60;12.80;10.40
71794;PMS7003;59641;45.188;5.712;2022-10-12T10:53:44;16.60;15.80;12.00
71794;PMS7003;59641;45.188;5.712;2022-10-12T10:56:16;12.80;11.60;8.40
71794;PMS7003;59641;45.188;5.712;2022-10-12T10:58:55;15.20;13.60;9.80
71794;PMS7003;59641;45.188;5.712;2022-10-12T11:05:03;15.60;14.40;10.80
71794;PMS7003;59641;45.188;5.712;2022-10-12T11:07:31;18.25;16.75;12.00
71794;PMS7003;59641;45.188;5.712;2022-10-12T11:10:04;15.40;14.60;11.00
71794;PMS7003;59641;45.188;5.712;2022-10-12T11:12:41;14.60;13.80;9.40
71794;PMS7003;59641;45.188;5.712;2022-10-12T11:15:22;14.80;14.00;11.00
71794;PMS7003;59641;45.188;5.712;2022-10-12T11:18:06;19.60;19.40;13.40
71794;PMS7003;59641;45.188;5.712;2022-10-12T11:20:49;14.40;13.20;10.40
71794;PMS7003;59641;45.188;5.712;2022-10-12T11:26:25;14.60;13.80;11.00
71794;PMS7003;59641;45.188;5.712;2022-10-12T11:28:56;16.00;15.00;11.80
71794;PMS7003;59641;45.188;5.712;2022-10-12T11:31:30;16.40;15.60;11.80
71794;PMS7003;59641;45.188;5.712;2022-10-12T11:34:00;13.40;13.20;12.00
71794;PMS7003;59641;45.188;5.712;2022-10-12T11:36:31;19.20;16.80;12.00
71794;PMS7003;59641;45.188;5.712;2022-10-12T11:39:04;16.60;15.20;11.20
71794;PMS7003;59641;45.188;5.712;2022-10-12T11:41:40;16.40;14.80;9.80
71794;PMS7003;59641;45.188;5.712;2022-10-12T11:44:12;12.20;12.00;10.80
71794;PMS7003;59641;45.188;5.712;2022-10-12T11:49:15;15.60;13.60;10.20
71794;PMS7003;59641;45.188;5.712;2022-10-12T11:51:50;17.60;14.80;11.20
71794;PMS7003;59641;45.188;5.712;2022-10-12T11:54:27;11.00;11.00;8.80
71794;PMS7003;59641;45.188;5.712;2022-10-12T11:57:09;15.00;13.20;9.00
71794;PMS7003;59641;45.188;5.712;2022-10-12T12:02:43;12.40;11.80;8.60
71794;PMS7003;59641;45.188;5.712;2022-10-12T12:05:15;11.80;11.80;10.00
71794;PMS7003;59641;45.188;5.712;2022-10-12T12:07:48;20.20;18.20;13.00
71794;PMS7003;59641;45.188;5.712;2022-10-12T12:22:28;15.40;15.40;12.00
71794;PMS7003;59641;45.188;5.712;2022-10-12T12:27:38;13.20;12.60;8.80
71794;PMS7003;59641;45.188;5.712;2022-10-12T12:32:47;15.40;14.00;10.80
71794;PMS7003;59641;45.188;5.712;2022-10-12T12:35:21;14.00;11.60;8.20
71794;PMS7003;59641;45.188;5.712;2022-10-12T12:37:47;17.60;15.00;12.20
71794;PMS7003;59641;45.188;5.712;2022-10-12T12:40:24;17.60;14.80;11.20
71794;PMS7003;59641;45.188;5.712;2022-10-12T12:42:49;15.75;14.00;11.00
71794;PMS7003;59641;45.188;5.712;2022-10-12T12:47:56;17.20;15.00;11.40
71794;PMS7003;59641;45.188;5.712;2022-10-12T12:50:27;14.00;13.20;10.40
71794;PMS7003;59641;45.188;5.712;2022-10-12T12:53:05;20.40;15.60;11.00
71794;PMS7003;59641;45.188;5.712;2022-10-12T12:58:21;17.20;15.00;10.80
71794;PMS7003;59641;45.188;5.712;2022-10-12T13:14:28;14.60;13.40;9.60
71794;PMS7003;59641;45.188;5.712;2022-10-12T13:22:52;11.80;11.80;9.00
71794;PMS7003;59641;45.188;5.712;2022-10-12T13:25:30;13.80;12.60;9.60
71794;PMS7003;59641;45.188;5.712;2022-10-12T13:28:09;13.20;12.60;10.80
71794;PMS7003;59641;45.188;5.712;2022-10-12T13:33:52;10.80;7.80;5.80
71794;PMS7003;59641;45.188;5.712;2022-10-12T13:37:02;13.00;11.20;9.00
71794;PMS7003;59641;45.188;5.712;2022-10-12T13:40:38;14.80;14.60;10.60
71794;PMS7003;59641;45.188;5.712;2022-10-12T13:45:59;11.80;11.40;9.00
71794;PMS7003;59641;45.188;5.712;2022-10-12T13:48:29;14.00;13.20;9.60
71794;PMS7003;59641;45.188;5.712;2022-10-12T13:51:23;11.80;11.80;9.20
71794;PMS7003;59641;45.188;5.712;2022-10-12T13:53:52;11.80;11.40;8.80
71794;PMS7003;59641;45.188;5.712;2022-10-12T13:56:19;12.20;12.20;10.00
71794;PMS7003;59641;45.188;5.712;2022-10-12T13:59:01;14.20;11.60;9.40
71794;PMS7003;59641;45.188;5.712;2022-10-12T14:04:51;14.80;13.20;9.80
71794;PMS7003;59641;45.188;5.712;2022-10-12T14:07:24;12.00;11.00;8.60
71794;PMS7003;59641;45.188;5.712;2022-10-12T14:09:58;11.40;10.60;8.20
71794;PMS7003;59641;45.188;5.712;2022-10-12T14:12:42;12.80;12.80;9.00
71794;PMS7003;59641;45.188;5.712;2022-10-12T14:15:14;11.20;9.80;8.00
71794;PMS7003;59641;45.188;5.712;2022-10-12T14:17:54;16.00;11.80;8.00
71794;PMS7003;59641;45.188;5.712;2022-10-12T14:20:28;11.20;11.20;9.80
71794;PMS7003;59641;45.188;5.712;2022-10-12T14:23:18;9.60;8.20;7.20
71794;PMS7003;59641;45.188;5.712;2022-10-12T14:26:01;14.00;13.20;10.00
71794;PMS7003;59641;45.188;5.712;2022-10-12T14:28:31;12.40;11.00;8.20
71794;PMS7003;59641;45.188;5.712;2022-10-12T14:31:04;11.80;11.60;8.60
71794;PMS7003;59641;45.188;5.712;2022-10-12T14:33:34;10.00;9.60;8.40
71794;PMS7003;59641;45.188;5.712;2022-10-12T14:38:46;12.20;12.20;8.60
71794;PMS7003;59641;45.188;5.712;2022-10-12T14:44:15;11.80;11.80;9.00
71794;PMS7003;59641;45.188;5.712;2022-10-12T14:46:52;14.60;11.00;7.60
71794;PMS7003;59641;45.188;5.712;2022-10-12T14:49:35;14.20;12.20;10.00
71794;PMS7003;59641;45.188;5.712;2022-10-12T14:52:16;11.80;11.00;8.80
71794;PMS7003;59641;45.188;5.712;2022-10-12T14:55:08;13.60;11.80;8.80
71794;PMS7003;59641;45.188;5.712;2022-10-12T14:57:42;10.20;10.00;7.80
71794;PMS7003;59641;45.188;5.712;2022-10-12T15:00:14;11.80;10.00;6.40
71794;PMS7003;59641;45.188;5.712;2022-10-12T15:02:50;10.60;10.60;7.40
71794;PMS7003;59641;45.188;5.712;2022-10-12T15:05:22;15.80;11.40;7.40
71794;PMS7003;59641;45.188;5.712;2022-10-12T15:07:53;9.60;9.20;6.80
71794;PMS7003;59641;45.188;5.712;2022-10-12T15:10:20;10.20;10.00;7.60
71794;PMS7003;59641;45.188;5.712;2022-10-12T15:12:50;10.40;10.20;7.00
71794;PMS7003;59641;45.188;5.712;2022-10-12T15:15:28;10.80;10.40;8.00
71794;PMS7003;59641;45.188;5.712;2022-10-12T15:17:56;14.20;12.60;9.20
71794;PMS7003;59641;45.188;5.712;2022-10-12T15:20:26;12.40;11.40;8.00
71794;PMS7003;59641;45.188;5.712;2022-10-12T15:22:54;9.80;9.40;7.00
71794;PMS7003;59641;45.188;5.712;2022-10-12T15:27:52;8.00;7.80;6.40
71794;PMS7003;59641;45.188;5.712;2022-10-12T15:30:18;8.80;7.40;5.20
71794;PMS7003;59641;45.188;5.712;2022-10-12T15:32:45;10.60;7.40;6.80
71794;PMS7003;59641;45.188;5.712;2022-10-12T15:35:20;8.40;8.40;6.00
71794;PMS7003;59641;45.188;5.712;2022-10-12T15:37:51;9.80;8.00;7.00
71794;PMS7003;59641;45.188;5.712;2022-10-12T15:40:23;13.60;11.40;7.40
71794;PMS7003;59641;45.188;5.712;2022-10-12T15:42:52;11.20;8.60;7.20
71794;PMS7003;59641;45.188;5.712;2022-10-12T15:45:30;11.20;10.00;7.80
71794;PMS7003;59641;45.188;5.712;2022-10-12T15:47:59;8.40;8.40;6.00
71794;PMS7003;59641;45.188;5.712;2022-10-12T15:50:46;12.80;12.80;9.20
71794;PMS7003;59641;45.188;5.712;2022-10-12T15:53:20;11.00;11.00;8.40
71794;PMS7003;59641;45.188;5.712;2022-10-12T15:55:49;10.00;7.40;6.80
71794;PMS7003;59641;45.188;5.712;2022-10-12T15:58:17;15.40;15.00;11.00
71794;PMS7003;59641;45.188;5.712;2022-10-12T16:00:46;9.80;8.20;7.00
71794;PMS7003;59641;45.188;5.712;2022-10-12T16:03:25;8.60;8.60;6.20
71794;PMS7003;59641;45.188;5.712;2022-10-12T16:05:55;7.00;7.00;4.60
71794;PMS7003;59641;45.188;5.712;2022-10-12T16:08:23;10.80;9.40;6.80
71794;PMS7003;59641;45.188;5.712;2022-10-12T16:11:01;9.60;9.60;6.40
71794;PMS7003;59641;45.188;5.712;2022-10-12T16:13:31;9.00;9.00;6.00